createdAt,value
2022-09-11T00:01:31.060Z,22.10
2022-09-11T00:03:57.737Z,22.05
2022-09-11T00:06:29.795Z,22.02
2022-09-11T00:09:00.713Z,22.04
2022-09-11T00:11:35.079Z,22.08
2022-09-11T00:14:01.896Z,22.08
2022-09-11T00:16:34.691Z,22.06
2022-09-11T00:19:04.942Z,22.01
2022-09-11T00:21:31.797Z,21.97
2022-09-11T00:23:58.394Z,21.94
2022-09-11T00:26:25.199Z,21.92
2022-09-11T00:28:52.455Z,21.89
2022-09-11T00:31:20.464Z,21.88
2022-09-11T00:33:47.054Z,21.84
2022-09-11T00:36:15.822Z,21.77
2022-09-11T00:38:42.853Z,21.77
2022-09-11T00:41:24.252Z,21.76
2022-09-11T00:44:07.725Z,21.79
2022-09-11T00:46:42.111Z,21.70
2022-09-11T00:49:17.813Z,21.70
2022-09-11T00:51:45.883Z,21.69
2022-09-11T00:54:12.771Z,21.66
2022-09-11T00:56:39.338Z,21.65
2022-09-11T00:59:05.921Z,21.62
2022-09-11T01:01:33.239Z,21.62
2022-09-11T01:04:03.393Z,21.50
2022-09-11T01:06:29.998Z,21.44
2022-09-11T01:08:56.575Z,21.49
2022-09-11T01:11:39.444Z,21.47
2022-09-11T01:14:21.183Z,21.50
2022-09-11T01:17:05.237Z,21.48
2022-09-11T01:19:40.863Z,21.45
2022-09-11T01:22:19.880Z,21.46
2022-09-11T01:24:49.408Z,21.44
2022-09-11T01:27:28.367Z,21.46
2022-09-11T01:29:59.024Z,21.46
2022-09-11T01:33:03.427Z,21.46
2022-09-11T01:35:47.222Z,21.40
2022-09-11T01:38:25.958Z,21.38
2022-09-11T01:40:57.571Z,21.36
2022-09-11T01:43:30.627Z,21.31
2022-09-11T01:45:58.572Z,21.25
2022-09-11T01:48:27.271Z,21.25
2022-09-11T01:50:54.314Z,21.26
2022-09-11T01:53:22.231Z,21.26
2022-09-11T01:56:02.470Z,21.25
2022-09-11T01:58:30.235Z,21.24
2022-09-11T02:01:05.757Z,21.20
2022-09-11T02:03:37.115Z,21.25
2022-09-11T02:06:05.929Z,21.26
2022-09-11T02:08:47.172Z,21.23
2022-09-11T02:11:14.250Z,21.23
2022-09-11T02:13:48.764Z,21.22
2022-09-11T02:16:33.247Z,21.18
2022-09-11T02:19:07.179Z,21.10
2022-09-11T02:21:33.798Z,21.06
2022-09-11T02:24:00.855Z,21.04
2022-09-11T02:26:30.221Z,21.00
2022-09-11T02:28:56.771Z,21.00
2022-09-11T02:31:23.393Z,20.98
2022-09-11T02:33:50.200Z,20.98
2022-09-11T02:36:32.042Z,20.87
2022-09-11T02:39:07.961Z,20.86
2022-09-11T02:41:42.872Z,20.88
2022-09-11T02:44:14.447Z,20.82
2022-09-11T02:46:56.089Z,20.77
2022-09-11T02:49:54.914Z,20.78
2022-09-11T02:52:41.590Z,20.67
2022-09-11T02:55:17.016Z,20.61
2022-09-11T02:58:00.981Z,20.55
2022-09-11T03:00:27.555Z,20.53
2022-09-11T03:02:54.108Z,20.44
2022-09-11T03:05:21.008Z,20.50
2022-09-11T03:07:47.580Z,20.48
2022-09-11T03:10:14.149Z,20.50
2022-09-11T03:12:41.757Z,20.48
2022-09-11T03:15:10.445Z,20.44
2022-09-11T03:17:37.039Z,20.44
2022-09-11T03:20:04.526Z,20.50
2022-09-11T03:22:33.419Z,20.49
2022-09-11T03:25:00.020Z,20.52
2022-09-11T03:27:27.635Z,20.51
2022-09-11T03:29:54.215Z,20.55
2022-09-11T03:32:22.853Z,20.57
2022-09-11T03:34:49.512Z,20.54
2022-09-11T03:37:16.061Z,20.56
2022-09-11T03:39:43.555Z,20.51
2022-09-11T03:42:13.314Z,20.46
2022-09-11T03:44:41.075Z,20.47
2022-09-11T03:47:07.720Z,20.54
2022-09-11T03:49:34.339Z,20.59
2022-09-11T03:52:01.624Z,20.70
2022-09-11T03:54:28.653Z,20.75
2022-09-11T03:56:55.252Z,20.78
2022-09-11T03:59:21.836Z,20.88
2022-09-11T04:01:50.810Z,20.85
2022-09-11T04:04:17.655Z,20.83
2022-09-11T04:06:44.178Z,20.92
2022-09-11T04:09:10.845Z,20.92
2022-09-11T04:11:40.388Z,20.99
2022-09-11T04:14:07.758Z,20.96
2022-09-11T04:16:34.349Z,21.02
2022-09-11T04:19:01.853Z,21.09
2022-09-11T04:21:28.656Z,21.11
2022-09-11T04:23:56.446Z,21.11
2022-09-11T04:26:24.209Z,21.09
2022-09-11T04:28:50.954Z,21.13
2022-09-11T04:31:17.937Z,21.13
2022-09-11T04:33:44.858Z,21.13
2022-09-11T04:36:13.192Z,21.20
2022-09-11T04:38:41.468Z,21.17
2022-09-11T04:41:08.266Z,21.24
2022-09-11T04:43:38.916Z,21.24
2022-09-11T04:46:07.235Z,21.27
2022-09-11T04:48:33.874Z,21.25
2022-09-11T04:51:07.916Z,21.25
2022-09-11T04:53:35.770Z,21.34
2022-09-11T04:56:07.425Z,21.38
2022-09-11T04:58:34.467Z,21.33
2022-09-11T05:01:01.075Z,21.37
2022-09-11T05:03:27.709Z,21.42
2022-09-11T05:05:54.315Z,21.46
2022-09-11T05:08:23.495Z,21.37
2022-09-11T05:10:50.064Z,21.47
2022-09-11T05:13:17.195Z,21.56
2022-09-11T05:15:43.804Z,21.62
2022-09-11T05:18:11.527Z,21.65
2022-09-11T05:20:39.912Z,21.62
2022-09-11T05:23:07.206Z,21.66
2022-09-11T05:25:33.803Z,21.76
2022-09-11T05:28:00.372Z,21.71
2022-09-11T05:30:27.171Z,21.81
2022-09-11T05:32:55.146Z,21.83
2022-09-11T05:35:24.360Z,21.91
2022-09-11T05:37:50.920Z,21.97
2022-09-11T05:40:17.571Z,22.03
2022-09-11T05:42:44.684Z,22.05
2022-09-11T05:45:11.301Z,21.86
2022-09-11T05:47:37.845Z,21.90
2022-09-11T05:50:04.571Z,21.93
2022-09-11T05:52:31.011Z,22.07
2022-09-11T05:54:58.204Z,22.23
2022-09-11T05:57:24.735Z,22.44
2022-09-11T05:59:52.267Z,22.67
2022-09-11T06:02:18.896Z,22.94
2022-09-11T06:04:45.372Z,23.40
2022-09-11T06:07:11.936Z,23.77
2022-09-11T06:09:38.531Z,24.46
2022-09-11T06:12:04.918Z,25.03
2022-09-11T06:14:32.125Z,25.31
2022-09-11T06:16:58.717Z,26.08
2022-09-11T06:19:25.135Z,26.26
2022-09-11T06:21:51.676Z,26.40
2022-09-11T06:24:18.686Z,27.09
2022-09-11T06:26:46.635Z,27.31
2022-09-11T06:29:14.915Z,27.73
2022-09-11T06:31:41.519Z,28.02
2022-09-11T06:34:08.214Z,27.93
2022-09-11T06:36:34.803Z,27.77
2022-09-11T06:39:02.298Z,28.30
2022-09-11T06:41:28.927Z,28.84
2022-09-11T06:43:55.498Z,29.52
2022-09-11T06:46:23.137Z,29.17
2022-09-11T06:48:50.237Z,29.38
2022-09-11T06:51:18.689Z,29.79
2022-09-11T06:53:45.376Z,29.76
2022-09-11T06:56:13.029Z,30.27
2022-09-11T06:58:40.191Z,31.06
2022-09-11T07:01:08.699Z,31.00
2022-09-11T07:03:35.408Z,31.28
2022-09-11T07:06:01.966Z,30.95
2022-09-11T07:08:28.527Z,31.11
2022-09-11T07:10:55.153Z,31.33
2022-09-11T07:13:24.407Z,31.66
2022-09-11T07:16:00.059Z,31.72
2022-09-11T07:18:26.656Z,30.70
2022-09-11T07:20:53.231Z,30.83
2022-09-11T07:23:20.064Z,31.26
2022-09-11T07:25:46.635Z,31.78
2022-09-11T07:28:13.256Z,32.15
2022-09-11T07:30:41.023Z,32.10
2022-09-11T07:33:07.619Z,32.54
2022-09-11T07:35:37.088Z,32.96
2022-09-11T07:38:03.628Z,32.91
2022-09-11T07:40:31.353Z,32.91
2022-09-11T07:42:58.006Z,31.79
2022-09-11T07:45:24.581Z,30.16
2022-09-11T07:47:51.164Z,29.68
2022-09-11T07:50:18.126Z,28.78
2022-09-11T07:52:44.719Z,28.23
2022-09-11T07:55:11.284Z,29.39
2022-09-11T07:57:37.884Z,30.84
2022-09-11T08:00:04.964Z,31.72
2022-09-11T08:02:31.604Z,32.29
2022-09-11T08:04:58.319Z,32.75
2022-09-11T08:07:25.550Z,32.10
2022-09-11T08:10:10.204Z,32.05
2022-09-11T08:12:38.689Z,32.17
2022-09-11T08:15:05.530Z,32.21
2022-09-11T08:17:32.665Z,32.39
2022-09-11T08:19:59.222Z,32.74
2022-09-11T08:22:25.796Z,32.33
2022-09-11T08:24:52.350Z,33.26
2022-09-11T08:27:18.953Z,33.73
2022-09-11T08:29:45.978Z,34.30
2022-09-11T08:32:13.302Z,34.67
2022-09-11T08:34:39.868Z,34.20
2022-09-11T08:37:06.466Z,34.18
2022-09-11T08:39:33.022Z,34.43
2022-09-11T08:42:03.859Z,34.79
2022-09-11T08:44:38.531Z,34.78
2022-09-11T08:47:07.967Z,35.07
2022-09-11T08:49:37.207Z,34.98
2022-09-11T08:52:04.401Z,34.03
2022-09-11T08:54:33.458Z,34.16
2022-09-11T08:57:28.089Z,34.11
2022-09-11T09:00:20.566Z,34.35
2022-09-11T09:02:56.995Z,33.73
2022-09-11T09:05:54.392Z,33.11
2022-09-11T09:08:24.344Z,31.92
2022-09-11T09:10:53.200Z,31.42
2022-09-11T09:13:25.799Z,30.98
2022-09-11T09:15:58.910Z,30.89
2022-09-11T09:18:32.998Z,30.87
2022-09-11T09:21:09.441Z,30.69
2022-09-11T09:23:41.942Z,30.69
2022-09-11T09:26:17.616Z,30.56
2022-09-11T09:28:46.791Z,30.46
2022-09-11T09:31:19.775Z,31.20
2022-09-11T09:34:04.328Z,32.06
2022-09-11T09:36:52.356Z,32.42
2022-09-11T09:39:19.008Z,32.58
2022-09-11T09:42:08.814Z,32.33
2022-09-11T09:45:14.800Z,31.58
2022-09-11T09:47:44.748Z,31.00
2022-09-11T09:50:22.833Z,31.44
2022-09-11T09:52:49.529Z,32.56
2022-09-11T09:55:18.142Z,33.59
2022-09-11T09:57:46.177Z,34.31
2022-09-11T10:00:17.555Z,34.43
2022-09-11T10:02:55.209Z,34.69
2022-09-11T10:05:35.157Z,35.19
2022-09-11T10:08:03.003Z,34.95
2022-09-11T10:10:37.054Z,35.19
2022-09-11T10:13:19.014Z,35.19
2022-09-11T10:15:48.300Z,35.37
2022-09-11T10:18:33.856Z,36.02
2022-09-11T10:21:12.699Z,35.35
2022-09-11T10:23:48.044Z,35.35
2022-09-11T10:26:24.792Z,35.18
2022-09-11T10:28:53.100Z,33.95
2022-09-11T10:31:20.692Z,34.13
2022-09-11T10:33:56.414Z,34.93
2022-09-11T10:36:27.316Z,34.47
2022-09-11T10:38:53.923Z,33.49
2022-09-11T10:41:21.644Z,32.60
2022-09-11T10:43:55.940Z,31.54
2022-09-11T10:46:40.453Z,30.74
2022-09-11T10:49:21.841Z,30.21
2022-09-11T10:52:19.334Z,29.43
2022-09-11T10:55:10.526Z,29.17
2022-09-11T10:57:45.388Z,28.80
2022-09-11T11:00:27.345Z,28.69
2022-09-11T11:03:05.343Z,28.67
2022-09-11T11:05:49.998Z,28.47
2022-09-11T11:08:25.665Z,28.21
2022-09-11T11:10:52.127Z,28.34
2022-09-11T11:13:21.510Z,28.37
2022-09-11T11:16:27.352Z,28.65
2022-09-11T11:19:03.554Z,29.35
2022-09-11T11:21:30.029Z,30.00
2022-09-11T11:24:02.384Z,29.89
2022-09-11T11:26:42.449Z,29.54
2022-09-11T11:29:22.448Z,29.55
2022-09-11T11:31:55.676Z,29.45
2022-09-11T11:34:51.160Z,29.37
2022-09-11T11:37:21.430Z,29.34
2022-09-11T11:40:24.677Z,29.11
2022-09-11T11:43:04.424Z,28.84
2022-09-11T11:45:52.626Z,28.43
2022-09-11T11:48:23.731Z,27.97
2022-09-11T11:50:52.779Z,28.05
2022-09-11T11:53:28.826Z,28.24
2022-09-11T11:56:22.907Z,28.47
2022-09-11T11:59:16.909Z,28.37
2022-09-11T12:02:02.383Z,28.72
2022-09-11T12:05:08.217Z,28.50
2022-09-11T12:07:37.304Z,28.43
2022-09-11T12:10:05.811Z,28.51
2022-09-11T12:12:43.071Z,28.37
2022-09-11T12:15:17.829Z,28.25
2022-09-11T12:17:45.217Z,28.07
2022-09-11T12:20:11.845Z,28.01
2022-09-11T12:22:48.789Z,27.96
2022-09-11T12:25:21.447Z,27.95
2022-09-11T12:27:50.888Z,27.91
2022-09-11T12:30:17.488Z,27.97
2022-09-11T12:33:01.098Z,27.79
2022-09-11T12:35:42.892Z,27.69
2022-09-11T12:38:09.312Z,27.65
2022-09-11T12:40:48.248Z,27.69
2022-09-11T12:43:45.783Z,27.55
2022-09-11T12:46:22.568Z,27.65
2022-09-11T12:49:21.466Z,27.55
2022-09-11T12:51:54.045Z,27.19
2022-09-11T12:54:39.583Z,27.34
2022-09-11T12:57:31.655Z,27.38
2022-09-11T13:00:11.843Z,27.52
2022-09-11T13:02:42.114Z,27.12
2022-09-11T13:05:26.314Z,27.11
2022-09-11T13:07:55.174Z,27.28
2022-09-11T13:10:37.134Z,27.19
2022-09-11T13:13:05.580Z,27.34
2022-09-11T13:15:39.195Z,27.42
2022-09-11T13:18:29.804Z,27.36
2022-09-11T13:20:58.895Z,27.61
2022-09-11T13:23:26.471Z,27.52
2022-09-11T13:25:55.603Z,27.80
2022-09-11T13:28:26.692Z,28.13
2022-09-11T13:31:02.191Z,28.15
2022-09-11T13:33:29.884Z,28.16
2022-09-11T13:36:02.633Z,28.48
2022-09-11T13:38:34.283Z,28.72
2022-09-11T13:41:15.018Z,28.76
2022-09-11T13:43:44.437Z,28.81
2022-09-11T13:46:17.111Z,28.80
2022-09-11T13:48:48.330Z,29.03
2022-09-11T13:51:31.180Z,28.90
2022-09-11T13:54:12.937Z,28.57
2022-09-11T13:56:45.192Z,28.34
2022-09-11T13:59:35.660Z,28.27
2022-09-11T14:02:03.469Z,28.38
2022-09-11T14:04:30.072Z,28.47
2022-09-11T14:06:56.709Z,28.24
2022-09-11T14:09:23.380Z,28.29
2022-09-11T14:11:49.989Z,28.13
2022-09-11T14:14:22.808Z,28.03
2022-09-11T14:16:54.974Z,28.13
2022-09-11T14:19:23.665Z,28.11
2022-09-11T14:21:50.574Z,28.08
2022-09-11T14:24:33.378Z,27.98
2022-09-11T14:27:01.694Z,27.92
2022-09-11T14:29:32.475Z,27.72
2022-09-11T14:32:33.783Z,27.74
2022-09-11T14:35:08.900Z,27.69
2022-09-11T14:37:40.311Z,27.76
2022-09-11T14:40:17.507Z,27.82
2022-09-11T14:42:44.232Z,27.70
2022-09-11T14:45:11.950Z,27.90
2022-09-11T14:47:39.117Z,27.89
2022-09-11T14:50:11.982Z,27.77
2022-09-11T14:52:39.076Z,27.57
2022-09-11T14:55:06.717Z,27.65
2022-09-11T14:57:36.603Z,27.56
2022-09-11T15:00:03.744Z,27.47
2022-09-11T15:02:30.368Z,27.42
2022-09-11T15:04:57.433Z,27.39
2022-09-11T15:07:24.462Z,27.40
2022-09-11T15:09:51.905Z,27.37
2022-09-11T15:12:19.206Z,27.37
2022-09-11T15:14:56.386Z,27.31
2022-09-11T15:17:25.332Z,27.38
2022-09-11T15:19:52.781Z,27.45
2022-09-11T15:22:19.490Z,27.35
2022-09-11T15:24:47.094Z,27.44
2022-09-11T15:27:13.889Z,27.17
2022-09-11T15:29:42.810Z,27.22
2022-09-11T15:32:09.817Z,27.22
2022-09-11T15:34:38.700Z,27.17
2022-09-11T15:37:05.464Z,27.05
2022-09-11T15:39:32.077Z,27.00
2022-09-11T15:41:59.267Z,26.97
2022-09-11T15:44:27.606Z,26.98
2022-09-11T15:46:54.738Z,26.96
2022-09-11T15:49:21.806Z,26.94
2022-09-11T15:51:52.219Z,26.83
2022-09-11T15:54:19.245Z,26.84
2022-09-11T15:56:46.822Z,26.83
2022-09-11T15:59:15.226Z,26.82
2022-09-11T16:01:42.252Z,26.63
2022-09-11T16:04:10.607Z,26.51
2022-09-11T16:06:39.116Z,26.22
2022-09-11T16:09:11.280Z,26.18
2022-09-11T16:11:39.624Z,26.07
2022-09-11T16:14:06.270Z,26.13
2022-09-11T16:16:32.824Z,26.23
2022-09-11T16:19:01.707Z,26.12
2022-09-11T16:21:28.725Z,26.19
2022-09-11T16:24:00.750Z,26.13
2022-09-11T16:26:29.111Z,26.16
2022-09-11T16:28:55.733Z,26.11
2022-09-11T16:31:22.353Z,26.00
2022-09-11T16:33:49.858Z,25.94
2022-09-11T16:36:20.854Z,25.77
2022-09-11T16:38:50.007Z,25.65
2022-09-11T16:41:18.997Z,25.63
2022-09-11T16:43:47.333Z,25.66
2022-09-11T16:46:15.529Z,25.63
2022-09-11T16:48:44.121Z,25.50
2022-09-11T16:51:11.949Z,25.44
2022-09-11T16:53:38.586Z,25.42
2022-09-11T16:56:09.115Z,25.37
2022-09-11T16:58:36.536Z,25.26
2022-09-11T17:01:29.545Z,25.24
2022-09-11T17:03:56.861Z,25.25
2022-09-11T17:06:24.769Z,25.22
2022-09-11T17:08:51.513Z,25.17
2022-09-11T17:11:19.737Z,25.17
2022-09-11T17:13:46.670Z,25.12
2022-09-11T17:16:16.606Z,25.05
2022-09-11T17:18:47.594Z,24.98
2022-09-11T17:21:14.257Z,24.96
2022-09-11T17:23:40.682Z,24.91
2022-09-11T17:26:11.199Z,24.93
2022-09-11T17:28:39.632Z,24.84
2022-09-11T17:31:07.842Z,24.76
2022-09-11T17:33:35.686Z,24.77
2022-09-11T17:36:03.061Z,24.75
2022-09-11T17:38:29.659Z,24.73
2022-09-11T17:41:00.185Z,24.70
2022-09-11T17:43:26.826Z,24.65
2022-09-11T17:45:59.593Z,24.71
2022-09-11T17:48:27.904Z,24.61
2022-09-11T17:51:05.397Z,24.59
2022-09-11T17:53:38.125Z,24.54
2022-09-11T17:56:07.221Z,24.50
2022-09-11T17:58:34.466Z,24.49
2022-09-11T18:01:02.939Z,24.44
2022-09-11T18:03:31.075Z,24.49
2022-09-11T18:05:58.099Z,24.46
2022-09-11T18:08:26.304Z,24.47
2022-09-11T18:10:54.016Z,24.42
2022-09-11T18:13:22.203Z,24.32
2022-09-11T18:15:50.122Z,24.44
2022-09-11T18:18:16.911Z,24.41
2022-09-11T18:20:43.589Z,24.45
2022-09-11T18:23:11.436Z,24.37
2022-09-11T18:25:39.806Z,24.43
2022-09-11T18:28:09.094Z,24.41
2022-09-11T18:30:40.889Z,24.36
2022-09-11T18:33:10.835Z,24.27
2022-09-11T18:35:38.077Z,24.20
2022-09-11T18:38:05.582Z,24.17
2022-09-11T18:40:32.391Z,24.23
2022-09-11T18:43:00.032Z,24.23
2022-09-11T18:45:30.644Z,24.17
2022-09-11T18:48:00.216Z,24.03
2022-09-11T18:50:26.992Z,24.02
2022-09-11T18:52:53.428Z,23.95
2022-09-11T18:55:22.709Z,23.87
2022-09-11T18:57:50.517Z,23.85
2022-09-11T19:00:17.651Z,23.83
2022-09-11T19:02:45.724Z,23.73
2022-09-11T19:05:15.469Z,23.62
2022-09-11T19:07:43.919Z,23.60
2022-09-11T19:10:11.626Z,23.57
2022-09-11T19:12:39.524Z,23.57
2022-09-11T19:15:07.669Z,23.42
2022-09-11T19:17:38.479Z,23.39
2022-09-11T19:20:12.246Z,23.28
2022-09-11T19:22:38.876Z,23.29
2022-09-11T19:25:05.577Z,23.30
2022-09-11T19:27:32.230Z,23.22
2022-09-11T19:29:59.978Z,23.20
2022-09-11T19:32:28.127Z,23.29
2022-09-11T19:34:54.972Z,23.18
2022-09-11T19:37:21.647Z,23.00
2022-09-11T19:39:52.618Z,23.10
2022-09-11T19:42:23.691Z,23.06
2022-09-11T19:44:55.597Z,23.01
2022-09-11T19:47:25.144Z,23.06
2022-09-11T19:49:52.139Z,23.05
2022-09-11T19:52:18.854Z,22.99
2022-09-11T19:54:45.249Z,22.95
2022-09-11T19:57:11.858Z,22.89
2022-09-11T19:59:38.494Z,22.86
2022-09-11T20:02:05.133Z,22.83
2022-09-11T20:04:31.675Z,22.76
2022-09-11T20:06:58.738Z,22.72
2022-09-11T20:09:31.489Z,22.75
2022-09-11T20:12:00.800Z,22.73
2022-09-11T20:14:31.374Z,22.65
2022-09-11T20:16:57.963Z,22.67
2022-09-11T20:19:24.642Z,22.70
2022-09-11T20:21:51.071Z,22.74
2022-09-11T20:24:17.971Z,22.73
2022-09-11T20:26:44.558Z,22.66
2022-09-11T20:29:14.932Z,22.65
2022-09-11T20:31:47.551Z,22.60
2022-09-11T20:34:16.331Z,22.59
2022-09-11T20:36:42.933Z,22.55
2022-09-11T20:39:11.023Z,22.55
2022-09-11T20:41:37.729Z,22.58
2022-09-11T20:44:04.321Z,22.52
2022-09-11T20:46:31.029Z,22.50
2022-09-11T20:48:57.514Z,22.44
2022-09-11T20:51:24.177Z,22.41
2022-09-11T20:53:50.607Z,22.32
2022-09-11T20:56:19.539Z,22.26
2022-09-11T20:58:46.225Z,22.23
2022-09-11T21:01:13.520Z,22.22
2022-09-11T21:03:46.977Z,22.20
2022-09-11T21:06:13.669Z,22.17
2022-09-11T21:08:42.118Z,22.17
2022-09-11T21:11:09.015Z,22.13
2022-09-11T21:13:39.269Z,22.09
2022-09-11T21:16:10.842Z,22.07
2022-09-11T21:18:37.709Z,22.02
2022-09-11T21:21:04.558Z,21.97
2022-09-11T21:23:31.298Z,21.95
2022-09-11T21:25:58.257Z,21.99
2022-09-11T21:28:24.808Z,21.95
2022-09-11T21:30:51.423Z,22.03
2022-09-11T21:33:18.068Z,21.97
2022-09-11T21:35:48.900Z,22.00
2022-09-11T21:38:16.590Z,22.00
2022-09-11T21:40:43.194Z,21.97
2022-09-11T21:43:09.737Z,22.00
2022-09-11T21:45:36.318Z,21.94
2022-09-11T21:48:03.144Z,21.87
2022-09-11T21:50:29.716Z,21.84
2022-09-11T21:52:56.377Z,21.91
2022-09-11T21:55:23.118Z,21.85
2022-09-11T21:57:49.503Z,21.89
2022-09-11T22:00:16.603Z,21.87
2022-09-11T22:02:43.171Z,21.92
2022-09-11T22:05:09.881Z,21.95
2022-09-11T22:07:36.337Z,21.98
2022-09-11T22:10:03.493Z,21.89
2022-09-11T22:12:30.093Z,21.84
2022-09-11T22:14:56.671Z,21.81
2022-09-11T22:17:23.266Z,21.86
2022-09-11T22:19:49.935Z,21.90
2022-09-11T22:22:16.685Z,21.89
2022-09-11T22:24:43.096Z,21.81
2022-09-11T22:27:09.813Z,21.82
2022-09-11T22:29:37.091Z,21.75
2022-09-11T22:32:06.720Z,21.72
2022-09-11T22:34:34.694Z,21.67
2022-09-11T22:37:01.256Z,21.64
2022-09-11T22:39:27.894Z,21.46
2022-09-11T22:41:54.684Z,21.54
2022-09-11T22:44:21.069Z,21.48
2022-09-11T22:46:48.893Z,21.46
2022-09-11T22:49:15.724Z,21.47
2022-09-11T22:51:42.116Z,21.49
2022-09-11T22:54:08.742Z,21.43
2022-09-11T22:56:35.293Z,21.46
2022-09-11T22:59:01.909Z,21.42
2022-09-11T23:01:28.490Z,21.45
2022-09-11T23:03:55.144Z,21.37
2022-09-11T23:06:43.440Z,21.37
2022-09-11T23:09:12.733Z,21.38
2022-09-11T23:11:39.786Z,21.32
2022-09-11T23:14:10.473Z,21.22
2022-09-11T23:16:40.784Z,21.27
2022-09-11T23:19:07.440Z,21.30
2022-09-11T23:21:35.573Z,21.28
2022-09-11T23:24:02.456Z,21.31
2022-09-11T23:26:29.503Z,21.28
2022-09-11T23:28:56.137Z,21.24
2022-09-11T23:31:28.831Z,21.25
2022-09-11T23:33:56.989Z,21.23
2022-09-11T23:36:23.687Z,21.21
2022-09-11T23:38:50.606Z,21.21
2022-09-11T23:41:17.721Z,21.21
2022-09-11T23:43:44.504Z,21.13
2022-09-11T23:46:11.623Z,21.12
2022-09-11T23:48:38.272Z,21.13
2022-09-11T23:51:05.513Z,21.14
2022-09-11T23:53:34.366Z,21.13
2022-09-11T23:56:00.996Z,21.09
2022-09-11T23:58:27.624Z,21.07
